Time;durP1;ratioP1;P1;durP2;ratioP2;P2;SDS_P1;SDS_P2;PMS_P1;PMS_P2;Temp;Humidity;BMP_temperature;BMP_pressure;BME280_temperature;BME280_humidity;BME280_pressure;Samples;Min_cycle;Max_cycle;Signal;HPM_P1;HPM_P2
2021/11/15 07:00:40;;;;;;;31.10;15.45;;;11.50;99.90;;;;;;5701605;23;19927;-84
2021/11/15 07:03:07;;;;;;;39.28;20.05;;;11.50;99.90;;;;;;4866844;29;20045;-84
2021/11/15 07:05:34;;;;;;;29.58;16.55;;;11.50;99.90;;;;;;4865121;29;20045;-83
2021/11/15 07:08:01;;;;;;;26.90;17.52;;;11.50;99.90;;;;;;4864179;29;20056;-84
2021/11/15 07:10:28;;;;;;;25.48;17.45;;;11.50;99.90;;;;;;4880121;29;20096;-84
2021/11/15 07:12:55;;;;;;;30.73;17.63;;;11.50;99.90;;;;;;4865138;29;20061;-83
2021/11/15 07:15:22;;;;;;;35.05;17.65;;;11.50;99.90;;;;;;4875567;29;20075;-87
2021/11/15 07:17:49;;;;;;;54.28;23.25;;;11.50;99.90;;;;;;4877221;29;20049;-87
2021/11/15 07:20:16;;;;;;;31.63;17.67;;;11.50;99.90;;;;;;4876761;29;20411;-86
2021/11/15 07:22:46;;;;;;;29.52;18.75;;;11.50;99.90;;;;;;4862382;29;20471;-86
2021/11/15 07:25:17;;;;;;;34.03;18.27;;;11.50;99.90;;;;;;4865119;29;20057;-87
2021/11/15 07:27:46;;;;;;;56.80;24.60;;;11.50;99.90;;;;;;4868036;29;20062;-85
2021/11/15 07:30:13;;;;;;;;;;;11.50;99.90;;;;;;4867506;29;20093;-85
2021/11/15 07:32:40;;;;;;;52.33;22.95;;;11.50;99.90;;;;;;4877091;29;19927;-86
2021/11/15 07:35:08;;;;;;;36.47;19.85;;;11.50;99.90;;;;;;4876054;29;20104;-86
2021/11/15 07:37:35;;;;;;;40.60;19.88;;;11.50;99.90;;;;;;4874184;29;20045;-85
2021/11/15 07:40:08;;;;;;;52.03;24.25;;;11.50;99.90;;;;;;4876300;29;20045;-85
2021/11/15 07:42:35;;;;;;;38.05;20.02;;;11.50;99.90;;;;;;4871178;29;20573;-86
2021/11/15 07:45:05;;;;;;;47.22;24.02;;;11.50;99.90;;;;;;4866754;29;20470;-86
2021/11/15 07:47:35;;;;;;;35.30;19.65;;;11.50;99.90;;;;;;4876392;29;20483;-85
2021/11/15 07:50:04;;;;;;;38.97;19.23;;;11.50;99.90;;;;;;4862393;29;20045;-85
2021/11/15 07:52:32;;;;;;;51.25;23.95;;;11.50;99.90;;;;;;4860540;29;20045;-86
2021/11/15 07:55:01;;;;;;;32.97;19.73;;;11.50;99.90;;;;;;4866052;29;20125;-85
2021/11/15 07:57:28;;;;;;;51.60;23.98;;;11.50;99.90;;;;;;4860571;29;20571;-87
2021/11/15 07:59:55;;;;;;;31.48;19.23;;;11.50;99.90;;;;;;4865356;29;20053;-84
2021/11/15 08:02:22;;;;;;;51.05;23.42;;;11.50;99.90;;;;;;4873688;29;20040;-85
2021/11/15 08:04:50;;;;;;;36.60;19.98;;;11.50;99.90;;;;;;4861359;29;20050;-84
2021/11/15 08:07:17;;;;;;;42.15;19.90;;;11.50;99.90;;;;;;4862843;29;20050;-85
2021/11/15 08:09:44;;;;;;;31.27;20.45;;;11.50;99.90;;;;;;4866033;29;20109;-85
2021/11/15 08:12:12;;;;;;;50.55;25.17;;;11.50;99.90;;;;;;4865235;29;20073;-85
2021/11/15 08:14:42;;;;;;;35.80;19.90;;;11.50;99.90;;;;;;4865723;29;20057;-85
2021/11/15 08:17:12;;;;;;;48.33;24.42;;;11.50;99.90;;;;;;4861892;29;20041;-85
2021/11/15 08:19:40;;;;;;;34.50;19.90;;;11.50;99.90;;;;;;4861760;29;20550;-86
2021/11/15 08:22:08;;;;;;;35.72;20.27;;;11.50;99.90;;;;;;4872372;29;20060;-85
2021/11/15 08:24:53;;;;;;;58.92;25.80;;;11.50;99.90;;;;;;4867549;29;20053;-86
2021/11/15 08:27:20;;;;;;;35.78;20.80;;;11.50;99.90;;;;;;4865928;29;20048;-86
2021/11/15 08:29:47;;;;;;;35.58;20.30;;;11.40;99.90;;;;;;4874337;29;20055;-85
2021/11/15 08:32:16;;;;;;;37.92;20.83;;;11.50;99.90;;;;;;4862568;29;20128;-86
2021/11/15 08:34:43;;;;;;;37.33;20.75;;;11.50;99.90;;;;;;4860049;29;20046;-85
2021/11/15 08:37:11;;;;;;;35.95;20.92;;;11.50;99.90;;;;;;4861383;29;20060;-86
2021/11/15 08:39:38;;;;;;;62.85;26.70;;;11.50;99.90;;;;;;4868795;29;20056;-86
2021/11/15 08:42:09;;;;;;;30.83;20.75;;;11.50;99.90;;;;;;4871346;29;20529;-84
2021/11/15 08:44:53;;;;;;;52.83;25.90;;;11.50;99.90;;;;;;4868974;29;20056;-85
2021/11/15 08:47:22;;;;;;;30.67;20.27;;;11.50;99.90;;;;;;4862950;29;20064;-85
2021/11/15 08:49:49;;;;;;;35.42;20.80;;;11.50;99.90;;;;;;4862038;29;20132;-85
2021/11/15 08:52:17;;;;;;;31.83;21.55;;;11.60;99.90;;;;;;4864157;29;20061;-85
2021/11/15 08:54:48;;;;;;;35.50;22.08;;;11.60;99.90;;;;;;4867055;29;20133;-85
2021/11/15 08:57:15;;;;;;;51.45;26.58;;;11.50;99.90;;;;;;4867751;29;20057;-84
2021/11/15 08:59:46;;;;;;;42.63;21.48;;;11.60;99.90;;;;;;4862927;29;20140;-85
2021/11/15 09:02:14;;;;;;;31.88;20.67;;;11.60;99.90;;;;;;4857738;29;20121;-85
2021/11/15 09:04:41;;;;;;;28.40;18.65;;;11.60;99.90;;;;;;4860867;29;20471;-86
2021/11/15 09:07:08;;;;;;;46.58;24.45;;;11.70;99.90;;;;;;4869296;29;20052;-84
2021/11/15 09:09:37;;;;;;;31.20;20.33;;;11.60;99.90;;;;;;4877017;29;20048;-84
2021/11/15 09:12:06;;;;;;;29.38;20.70;;;11.70;99.90;;;;;;4876355;29;20137;-84
2021/11/15 09:14:33;;;;;;;46.47;25.50;;;11.70;99.90;;;;;;4877458;29;20045;-85
2021/11/15 09:17:00;;;;;;;31.13;20.15;;;11.70;99.90;;;;;;4873786;29;20056;-85
2021/11/15 09:19:27;;;;;;;38.10;23.67;;;11.70;99.90;;;;;;4871926;29;20124;-85
2021/11/15 09:21:55;;;;;;;27.08;19.42;;;11.70;99.90;;;;;;4865664;29;20050;-85
2021/11/15 09:24:23;;;;;;;27.45;19.75;;;11.70;99.90;;;;;;4865321;29;20045;-85
2021/11/15 09:26:51;;;;;;;45.20;24.67;;;11.70;99.90;;;;;;4865964;29;20057;-85
2021/11/15 09:29:19;;;;;;;20.83;15.70;;;11.70;99.90;;;;;;4870630;29;20090;-85
2021/11/15 09:31:46;;;;;;;25.52;16.70;;;11.70;99.90;;;;;;4860194;29;20930;-85
2021/11/15 09:34:14;;;;;;;29.25;18.42;;;11.70;99.90;;;;;;4877203;29;20053;-85
2021/11/15 09:36:41;;;;;;;20.88;14.93;;;11.70;99.90;;;;;;4875183;29;20503;-82
2021/11/15 09:39:09;;;;;;;18.15;14.23;;;11.70;99.90;;;;;;4876455;29;20137;-84
2021/11/15 09:41:38;;;;;;;29.00;17.08;;;11.70;99.90;;;;;;4876658;29;20081;-83
2021/11/15 09:44:04;;;;;;;;;;;11.80;99.90;;;;;;4876026;29;20109;-83
2021/11/15 09:46:32;;;;;;;18.90;13.50;;;11.80;99.90;;;;;;4873386;29;19924;-84
2021/11/15 09:49:10;;;;;;;33.47;17.30;;;11.90;99.90;;;;;;4858727;29;20593;-83
2021/11/15 09:51:42;;;;;;;15.48;13.88;;;12.00;99.90;;;;;;4874150;29;20045;-84
2021/11/15 09:54:11;;;;;;;19.58;14.55;;;12.00;99.90;;;;;;4875947;29;20055;-84
2021/11/15 09:56:38;;;;;;;;;;;12.10;99.90;;;;;;4872586;29;20475;-82
2021/11/15 09:59:07;;;;;;;36.13;19.77;;;12.20;99.90;;;;;;4857561;29;20406;-82
2021/11/15 10:01:34;;;;;;;22.67;16.20;;;12.30;99.90;;;;;;4857826;29;20592;-83
2021/11/15 10:04:02;;;;;;;25.42;16.40;;;12.50;99.90;;;;;;4874202;29;20055;-84
2021/11/15 10:06:29;;;;;;;25.88;16.80;;;12.60;99.90;;;;;;4875552;29;20049;-82
2021/11/15 10:09:00;;;;;;;23.63;17.48;;;12.70;99.90;;;;;;4867741;29;20118;-83
2021/11/15 10:11:42;;;;;;;30.45;17.23;;;12.70;99.90;;;;;;4863240;29;20045;-84
2021/11/15 10:14:10;;;;;;;23.20;17.95;;;12.80;99.90;;;;;;4861797;29;20049;-83
2021/11/15 10:16:37;;;;;;;24.45;17.40;;;12.80;99.90;;;;;;4861069;29;20109;-83
2021/11/15 10:19:10;;;;;;;28.98;18.45;;;12.90;99.90;;;;;;4875965;29;20132;-84
2021/11/15 10:21:46;;;;;;;28.65;18.45;;;12.80;99.90;;;;;;4865141;29;20049;-83
2021/11/15 10:24:15;;;;;;;28.95;19.10;;;12.80;99.90;;;;;;4869167;29;20056;-83
2021/11/15 10:26:46;;;;;;;;;;;12.90;99.90;;;;;;4866804;29;20049;-83
2021/11/15 10:29:39;;;;;;;26.50;18.45;;;12.90;99.90;;;;;;4872837;29;20433;-83
2021/11/15 10:32:10;;;;;;;32.08;19.48;;;12.90;99.90;;;;;;4859353;29;20045;-84
2021/11/15 10:34:38;;;;;;;28.30;19.08;;;12.90;99.90;;;;;;4875579;29;20049;-83
2021/11/15 10:37:10;;;;;;;27.55;19.27;;;12.90;99.90;;;;;;4863460;29;20523;-82
2021/11/15 10:39:40;;;;;;;31.65;18.63;;;12.80;99.90;;;;;;4857131;29;20053;-83
2021/11/15 10:42:10;;;;;;;31.52;19.73;;;12.80;99.90;;;;;;4863539;29;20403;-83
2021/11/15 10:44:45;;;;;;;30.08;20.65;;;12.80;99.90;;;;;;4866293;29;20045;-83
2021/11/15 10:47:13;;;;;;;24.73;19.17;;;12.80;99.90;;;;;;4875495;29;20089;-84
2021/11/15 10:49:41;;;;;;;25.93;19.43;;;12.90;99.90;;;;;;4875415;29;20518;-83
2021/11/15 10:52:14;;;;;;;24.60;18.30;;;12.90;99.90;;;;;;4871389;29;20302;-85
2021/11/15 10:54:52;;;;;;;25.98;18.25;;;13.10;99.90;;;;;;4874648;29;20459;-83
2021/11/15 10:57:27;;;;;;;24.10;17.05;;;13.10;99.90;;;;;;4869278;29;20093;-83
2021/11/15 11:00:11;;;;;;;23.45;16.98;;;13.10;99.90;;;;;;4864527;29;20057;-83
2021/11/15 11:02:41;;;;;;;22.77;17.58;;;13.20;99.90;;;;;;4864690;29;20101;-83
2021/11/15 11:05:16;;;;;;;24.88;16.35;;;13.10;99.90;;;;;;4875378;29;20049;-84
2021/11/15 11:07:46;;;;;;;25.15;16.67;;;13.10;99.90;;;;;;4875341;29;20052;-83
2021/11/15 11:10:21;;;;;;;20.77;16.45;;;13.20;99.90;;;;;;4870105;29;20471;-83
2021/11/15 11:12:57;;;;;;;21.02;15.90;;;13.20;99.90;;;;;;4875344;29;20060;-83
2021/11/15 11:15:39;;;;;;;24.98;16.58;;;13.10;99.90;;;;;;4867811;29;20046;-82
2021/11/15 11:18:46;;;;;;;24.40;16.58;;;13.10;99.90;;;;;;4868115;29;20514;-83
2021/11/15 11:26:35;;;;;;;20.33;14.68;;;13.10;99.90;;;;;;4860272;29;20129;-84
2021/11/15 11:29:14;;;;;;;20.90;13.70;;;13.10;99.90;;;;;;4861140;29;20057;-83
2021/11/15 11:31:44;;;;;;;19.83;14.13;;;13.10;99.90;;;;;;4874638;29;20041;-84
2021/11/15 11:34:15;;;;;;;23.67;15.13;;;13.20;99.90;;;;;;4872802;29;20053;-84
2021/11/15 11:36:43;;;;;;;20.63;13.55;;;13.30;99.90;;;;;;4867935;29;20042;-84
2021/11/15 11:39:11;;;;;;;17.13;14.80;;;13.30;99.90;;;;;;4871669;29;20049;-86
2021/11/15 11:42:05;;;;;;;18.20;14.32;;;13.30;99.90;;;;;;4877553;29;20530;-84
2021/11/15 11:44:33;;;;;;;19.48;13.85;;;13.40;99.90;;;;;;4875935;29;20057;-85
2021/11/15 11:47:04;;;;;;;16.85;12.52;;;13.40;99.90;;;;;;4877345;29;20053;-85
2021/11/15 11:49:33;;;;;;;16.48;12.98;;;13.50;99.90;;;;;;4865935;29;20045;-86
2021/11/15 11:52:04;;;;;;;16.50;12.00;;;13.50;99.90;;;;;;4865081;29;20113;-86
2021/11/15 11:54:43;;;;;;;16.75;12.52;;;13.60;99.90;;;;;;4860487;29;20125;-85
2021/11/15 11:57:29;;;;;;;12.65;10.82;;;13.70;99.90;;;;;;4867749;29;20057;-85
2021/11/15 12:00:05;;;;;;;16.95;11.68;;;13.80;99.90;;;;;;4871388;29;20053;-85
2021/11/15 12:02:34;;;;;;;13.77;10.55;;;13.90;99.90;;;;;;4874262;29;20166;-85
2021/11/15 12:05:05;;;;;;;14.15;9.55;;;14.00;99.90;;;;;;4866586;29;20475;-86
2021/11/15 12:07:37;;;;;;;12.80;9.30;;;14.00;99.90;;;;;;4873774;29;20045;-85
2021/11/15 12:10:32;;;;;;;14.77;9.65;;;14.10;99.90;;;;;;4865959;29;20057;-85
2021/11/15 12:13:02;;;;;;;13.57;8.77;;;14.10;99.90;;;;;;4889582;29;20467;-83
2021/11/15 12:15:35;;;;;;;16.85;8.98;;;14.10;99.90;;;;;;4872720;29;20056;-83
2021/11/15 12:18:13;;;;;;;17.02;10.65;;;14.10;99.90;;;;;;4876221;29;20049;-84
2021/11/15 12:21:05;;;;;;;17.13;10.27;;;14.20;99.90;;;;;;4876081;29;20045;-83
2021/11/15 12:23:37;;;;;;;15.77;10.52;;;14.20;99.90;;;;;;4859244;29;20102;-83
2021/11/15 12:26:09;;;;;;;17.27;10.02;;;14.20;99.90;;;;;;4862500;29;20049;-83
2021/11/15 12:28:40;;;;;;;12.75;9.60;;;14.30;99.90;;;;;;4873845;29;20138;-84
2021/11/15 12:31:08;;;;;;;13.18;9.32;;;14.30;99.90;;;;;;4864620;29;20102;-83
2021/11/15 12:33:37;;;;;;;15.32;9.32;;;14.30;99.90;;;;;;4873698;29;20079;-82
2021/11/15 12:36:07;;;;;;;14.20;8.65;;;14.30;99.90;;;;;;4871808;29;20041;-82
2021/11/15 12:38:34;;;;;;;13.27;9.13;;;14.30;99.90;;;;;;4875850;29;20052;-82
2021/11/15 12:41:16;;;;;;;13.02;8.90;;;14.30;99.90;;;;;;4861816;29;20057;-83
2021/11/15 12:44:20;;;;;;;9.70;7.93;;;14.30;99.90;;;;;;4866198;29;20045;-83
2021/11/15 12:46:50;;;;;;;12.75;9.40;;;14.30;99.90;;;;;;4874459;29;20506;-83
2021/11/15 12:49:35;;;;;;;13.65;10.25;;;14.20;99.90;;;;;;4863065;29;20057;-82
2021/11/15 12:52:11;;;;;;;12.20;9.07;;;14.20;99.90;;;;;;4870439;29;20053;-81
2021/11/15 12:54:38;;;;;;;14.48;9.48;;;14.10;99.90;;;;;;4870738;29;20566;-83
2021/11/15 12:57:07;;;;;;;9.70;7.43;;;14.10;99.90;;;;;;4871423;29;20092;-81
2021/11/15 12:59:35;;;;;;;10.57;7.40;;;14.00;99.90;;;;;;4864257;29;20105;-83
2021/11/15 13:02:02;;;;;;;12.15;7.40;;;14.00;99.90;;;;;;4861321;29;20100;-83
2021/11/15 13:04:29;;;;;;;15.52;10.32;;;13.90;99.90;;;;;;4860443;29;20089;-82
2021/11/15 13:06:56;;;;;;;10.82;7.10;;;13.90;99.90;;;;;;4864234;29;20065;-84
2021/11/15 13:09:23;;;;;;;13.15;7.70;;;13.80;99.90;;;;;;4872149;29;20041;-82
2021/11/15 13:11:50;;;;;;;10.95;7.07;;;13.90;99.90;;;;;;4869789;29;20050;-82
2021/11/15 13:14:17;;;;;;;11.38;7.38;;;13.90;99.90;;;;;;4862332;29;20056;-83
2021/11/15 13:16:45;;;;;;;12.18;7.35;;;13.90;99.90;;;;;;4859875;29;20105;-83
2021/11/15 13:19:18;;;;;;;12.65;7.57;;;13.90;99.90;;;;;;4862462;29;20077;-82
2021/11/15 13:21:45;;;;;;;8.60;6.60;;;13.90;99.90;;;;;;4874716;29;20113;-82
2021/11/15 13:24:16;;;;;;;14.73;7.53;;;14.00;99.90;;;;;;4875104;29;20053;-82
2021/11/15 13:26:47;;;;;;;11.63;8.10;;;14.00;99.90;;;;;;4876091;29;20057;-82
2021/11/15 13:29:17;;;;;;;12.75;8.77;;;14.00;99.90;;;;;;4872979;29;20045;-83
2021/11/15 13:31:47;;;;;;;12.23;8.45;;;14.10;99.90;;;;;;4876281;29;20057;-83
2021/11/15 13:34:16;;;;;;;11.98;8.40;;;14.10;99.90;;;;;;4857800;29;20061;-83
2021/11/15 13:36:44;;;;;;;10.32;7.68;;;14.00;99.90;;;;;;4872612;29;20049;-82
2021/11/15 13:39:11;;;;;;;11.52;8.02;;;14.00;99.90;;;;;;4875020;29;20606;-82
2021/11/15 13:41:38;;;;;;;10.65;7.75;;;14.00;99.90;;;;;;4871521;29;20506;-82
2021/11/15 13:44:07;;;;;;;11.27;6.80;;;14.00;99.90;;;;;;4868375;29;20124;-82
2021/11/15 13:46:34;;;;;;;8.50;6.25;;;14.00;99.90;;;;;;4860207;29;20046;-84
2021/11/15 13:49:04;;;;;;;12.02;7.65;;;14.00;99.90;;;;;;4864945;29;20108;-82
2021/11/15 13:51:31;;;;;;;11.38;8.18;;;14.00;99.90;;;;;;4864530;29;20045;-82
2021/11/15 13:53:58;;;;;;;9.90;7.10;;;14.00;99.90;;;;;;4864351;29;20050;-83
2021/11/15 13:56:25;;;;;;;12.70;7.05;;;14.00;99.90;;;;;;4863618;29;20456;-83
2021/11/15 13:58:52;;;;;;;9.35;6.72;;;14.10;99.90;;;;;;4875924;29;20085;-82
2021/11/15 14:01:20;;;;;;;10.98;6.60;;;14.10;99.90;;;;;;4861479;29;20114;-82
2021/11/15 14:03:48;;;;;;;10.13;7.00;;;14.10;99.90;;;;;;4874088;29;20080;-82
2021/11/15 14:06:15;;;;;;;11.32;6.55;;;14.10;99.90;;;;;;4870132;29;20819;-82
2021/11/15 14:08:44;;;;;;;7.85;6.78;;;14.20;99.90;;;;;;4873472;29;20052;-83
2021/11/15 14:11:12;;;;;;;13.20;8.10;;;14.20;99.90;;;;;;4861041;29;20044;-83
2021/11/15 14:13:39;;;;;;;7.97;7.03;;;14.20;99.90;;;;;;4860005;29;20045;-82
2021/11/15 14:16:06;;;;;;;10.48;7.07;;;14.30;99.90;;;;;;4871063;29;20480;-82
2021/11/15 14:18:34;;;;;;;10.85;8.10;;;14.30;99.90;;;;;;4860200;29;20128;-83
2021/11/15 14:21:01;;;;;;;9.30;6.82;;;14.30;99.90;;;;;;4862862;29;20049;-83
2021/11/15 14:23:28;;;;;;;9.88;7.38;;;14.30;99.90;;;;;;4858952;29;20407;-82
2021/11/15 14:25:59;;;;;;;8.00;6.65;;;14.30;99.90;;;;;;4859313;29;20055;-82
2021/11/15 14:28:26;;;;;;;10.63;6.90;;;14.30;99.90;;;;;;4860899;29;20093;-83
2021/11/15 14:30:53;;;;;;;8.63;7.03;;;14.30;99.90;;;;;;4870422;29;20046;-83
2021/11/15 14:33:20;;;;;;;10.35;6.72;;;14.30;99.90;;;;;;4873248;29;20061;-82
2021/11/15 14:35:47;;;;;;;11.38;7.88;;;14.30;99.90;;;;;;4873158;29;20053;-82
2021/11/15 14:38:16;;;;;;;11.63;7.93;;;14.40;99.90;;;;;;4861289;29;20053;-82
2021/11/15 14:40:43;;;;;;;10.55;8.00;;;14.30;99.90;;;;;;4875198;29;20049;-82
2021/11/15 14:43:11;;;;;;;10.20;8.27;;;14.30;99.90;;;;;;4866598;29;20534;-82
2021/11/15 14:45:39;;;;;;;10.52;8.93;;;14.30;99.90;;;;;;4874807;29;20045;-83
2021/11/15 14:48:06;;;;;;;9.40;7.85;;;14.40;99.90;;;;;;4869694;29;20483;-82
2021/11/15 14:50:33;;;;;;;13.95;8.27;;;14.30;99.90;;;;;;4864206;29;20068;-83
2021/11/15 14:53:01;;;;;;;15.70;11.02;;;14.30;99.90;;;;;;4872722;29;20469;-83
2021/11/15 14:55:28;;;;;;;13.45;9.55;;;14.30;99.90;;;;;;4871066;29;20113;-83
2021/11/15 14:57:55;;;;;;;12.45;9.43;;;14.20;99.90;;;;;;4873731;29;20053;-83
2021/11/15 15:00:24;;;;;;;12.07;8.40;;;14.20;99.90;;;;;;4869594;29;20147;-82
2021/11/15 15:02:51;;;;;;;9.95;8.70;;;14.20;99.90;;;;;;4866868;29;20530;-82
2021/11/15 15:05:20;;;;;;;11.30;9.07;;;14.20;99.90;;;;;;4857573;29;20180;-82
2021/11/15 15:07:48;;;;;;;12.30;8.65;;;14.20;99.90;;;;;;4872741;29;20078;-82
2021/11/15 15:10:20;;;;;;;9.55;8.10;;;14.20;99.90;;;;;;4858123;29;20934;-83
2021/11/15 15:12:52;;;;;;;9.70;8.25;;;14.20;99.90;;;;;;4866871;29;20053;-83
2021/11/15 15:15:20;;;;;;;9.00;7.40;;;14.10;99.90;;;;;;4867516;29;20069;-83
2021/11/15 15:17:51;;;;;;;14.18;8.70;;;14.10;99.90;;;;;;4863833;29;20141;-83
2021/11/15 15:20:21;;;;;;;9.63;8.02;;;14.10;99.90;;;;;;4875733;29;20177;-82
2021/11/15 15:22:56;;;;;;;10.65;8.38;;;14.10;99.90;;;;;;4861806;29;20082;-82
2021/11/15 15:25:25;;;;;;;11.55;9.00;;;14.10;99.90;;;;;;4864167;29;20109;-82
2021/11/15 15:27:54;;;;;;;15.38;9.75;;;14.00;99.90;;;;;;4877800;29;20045;-81
2021/11/15 15:30:22;;;;;;;14.30;9.98;;;14.00;99.90;;;;;;4870907;29;20053;-82
2021/11/15 15:32:51;;;;;;;11.60;9.10;;;14.00;99.90;;;;;;4866997;29;20056;-82
2021/11/15 15:35:23;;;;;;;13.25;9.07;;;14.00;99.90;;;;;;4863518;29;20570;-82
2021/11/15 15:37:52;;;;;;;10.63;8.70;;;14.00;99.90;;;;;;4862327;29;20176;-82
2021/11/15 15:40:22;;;;;;;15.40;9.13;;;13.90;99.90;;;;;;4864511;29;20053;-81
2021/11/15 15:42:50;;;;;;;12.55;9.20;;;13.90;99.90;;;;;;4868613;29;20054;-83
2021/11/15 15:45:18;;;;;;;11.00;8.52;;;13.90;99.90;;;;;;4867033;29;20114;-83
2021/11/15 15:47:51;;;;;;;12.88;8.80;;;13.90;99.90;;;;;;4861625;29;20054;-82
2021/11/15 15:50:18;;;;;;;11.15;8.40;;;13.90;99.90;;;;;;4864493;29;20105;-82
2021/11/15 15:52:46;;;;;;;12.02;8.57;;;13.80;99.90;;;;;;4862506;29;20102;-82
2021/11/15 15:55:14;;;;;;;12.05;8.10;;;13.80;99.90;;;;;;4871289;29;20085;-82
2021/11/15 15:57:42;;;;;;;15.43;8.30;;;13.80;99.90;;;;;;4872521;29;20053;-83
2021/11/15 16:00:13;;;;;;;37.27;11.17;;;13.80;99.90;;;;;;4869447;29;20045;-83
2021/11/15 16:02:45;;;;;;;29.80;11.15;;;13.70;99.90;;;;;;4876720;29;20293;-82
2021/11/15 16:08:30;;;;;;;15.25;10.25;;;13.70;99.90;;;;;;4876216;29;20048;-83
2021/11/15 16:19:29;;;;;;;17.83;11.32;;;13.50;99.90;;;;;;4748080;30;20060;-83
2021/11/15 16:21:56;;;;;;;15.95;10.90;;;13.40;99.90;;;;;;4757935;30;20174;-83
2021/11/15 16:24:23;;;;;;;20.45;12.10;;;13.30;99.90;;;;;;4755425;30;20067;-82
2021/11/15 16:26:51;;;;;;;13.90;10.75;;;13.30;99.90;;;;;;4751872;30;20060;-82
2021/11/15 16:29:19;;;;;;;15.00;11.43;;;13.20;99.90;;;;;;4747689;30;20053;-82
2021/11/15 16:31:47;;;;;;;15.23;12.18;;;13.20;99.90;;;;;;4749338;30;20048;-83
2021/11/15 16:34:14;;;;;;;16.25;12.25;;;13.20;99.90;;;;;;4754505;30;20083;-83
2021/11/15 16:36:41;;;;;;;17.23;12.27;;;13.20;99.90;;;;;;4757926;30;20472;-83
2021/11/15 16:39:10;;;;;;;15.23;11.80;;;13.10;99.90;;;;;;4756939;30;20051;-83
2021/11/15 16:41:38;;;;;;;13.95;10.70;;;13.10;99.90;;;;;;4742535;30;20060;-82
2021/11/15 16:44:16;;;;;;;16.70;11.18;;;13.00;99.90;;;;;;4733355;30;20466;-82
2021/11/15 16:46:49;;;;;;;14.52;11.23;;;13.00;99.90;;;;;;4764636;30;20074;-82
2021/11/15 16:49:18;;;;;;;17.48;11.30;;;12.90;99.90;;;;;;4751469;30;20501;-82
2021/11/15 16:51:46;;;;;;;15.05;11.75;;;12.90;99.90;;;;;;4783895;29;20244;-82
2021/11/15 16:54:12;;;;;;;20.17;12.55;;;12.80;99.90;;;;;;4798672;29;20079;-82
2021/11/15 16:56:42;;;;;;;16.88;12.77;;;12.80;99.90;;;;;;4841965;29;20472;-82
2021/11/15 16:59:12;;;;;;;19.97;13.77;;;12.80;99.90;;;;;;4865954;29;20045;-82
2021/11/15 17:01:40;;;;;;;17.98;13.40;;;12.70;99.90;;;;;;4867985;29;20826;-82
2021/11/15 17:04:09;;;;;;;;;;;12.70;99.90;;;;;;4869745;29;20045;-83
2021/11/15 17:06:36;;;;;;;15.65;12.00;;;12.70;99.90;;;;;;4863313;29;20450;-82
2021/11/15 17:09:04;;;;;;;17.75;12.95;;;12.60;99.90;;;;;;4863535;29;20089;-82
2021/11/15 17:11:37;;;;;;;19.13;14.10;;;12.60;99.90;;;;;;4876211;29;20045;-80
2021/11/15 17:14:05;;;;;;;18.77;13.73;;;12.60;99.90;;;;;;4872215;29;20061;-82
2021/11/15 17:16:33;;;;;;;17.70;13.27;;;12.60;99.90;;;;;;4867274;29;20125;-83
2021/11/15 17:19:01;;;;;;;19.25;13.57;;;12.60;99.90;;;;;;4864630;29;20057;-82
2021/11/15 17:21:30;;;;;;;16.55;14.00;;;12.60;99.90;;;;;;4863402;29;20049;-81
2021/11/15 17:23:58;;;;;;;16.67;13.05;;;12.60;99.90;;;;;;4864446;29;20045;-81
2021/11/15 17:26:28;;;;;;;17.98;13.38;;;12.60;99.90;;;;;;4865726;29;20460;-83
2021/11/15 17:28:59;;;;;;;23.02;15.05;;;12.60;99.90;;;;;;4865199;29;20076;-81
2021/11/15 17:31:32;;;;;;;22.38;17.63;;;12.60;99.90;;;;;;4860956;29;20049;-81
2021/11/15 17:33:59;;;;;;;20.08;15.15;;;12.60;99.90;;;;;;4866568;29;20136;-83
2021/11/15 17:36:26;;;;;;;21.75;15.32;;;12.60;99.90;;;;;;4860106;29;21070;-83
2021/11/15 17:38:53;;;;;;;18.75;13.90;;;12.60;99.90;;;;;;4865743;29;20045;-83
2021/11/15 17:41:20;;;;;;;17.35;13.35;;;12.70;99.90;;;;;;4862072;29;20502;-82
2021/11/15 17:43:48;;;;;;;18.17;14.23;;;12.70;99.90;;;;;;4861827;29;20538;-82
2021/11/15 17:46:16;;;;;;;19.52;14.35;;;12.70;99.90;;;;;;4864398;29;20059;-82
2021/11/15 17:48:44;;;;;;;16.77;14.45;;;12.70;99.90;;;;;;4865676;29;20148;-82
2021/11/15 17:51:22;;;;;;;20.95;14.98;;;12.70;99.90;;;;;;4861076;29;20098;-81
2021/11/15 17:54:09;;;;;;;22.00;14.68;;;12.70;99.90;;;;;;4861616;29;20201;-81
2021/11/15 17:56:44;;;;;;;18.88;15.00;;;12.60;99.90;;;;;;4874365;29;20045;-82
2021/11/15 18:01:47;;;;;;;20.50;14.65;;;12.60;99.90;;;;;;4854513;29;20526;-83
2021/11/15 18:04:14;;;;;;;;;;;12.60;99.90;;;;;;4856103;29;20081;-80
2021/11/15 18:06:44;;;;;;;19.30;13.75;;;12.60;99.90;;;;;;4859728;29;19924;-82
2021/11/15 18:09:14;;;;;;;19.23;13.80;;;12.50;99.90;;;;;;4854583;29;20057;-80
2021/11/15 18:11:42;;;;;;;20.40;13.85;;;12.50;99.90;;;;;;4850089;29;20160;-81
2021/11/15 18:14:25;;;;;;;25.92;14.73;;;12.50;99.90;;;;;;4861546;29;20057;-82
2021/11/15 18:16:53;;;;;;;24.02;15.55;;;12.50;99.90;;;;;;4864579;29;20072;-82
2021/11/15 18:19:22;;;;;;;23.52;15.38;;;12.50;99.90;;;;;;4861066;29;20537;-82
2021/11/15 18:21:51;;;;;;;24.83;16.45;;;12.50;99.90;;;;;;4856384;29;20053;-81
2021/11/15 18:24:20;;;;;;;24.88;15.93;;;12.50;99.90;;;;;;4851808;29;20057;-82
2021/11/15 18:26:53;;;;;;;23.23;15.95;;;12.50;99.90;;;;;;4851173;29;20057;-83
2021/11/15 18:29:21;;;;;;;25.45;16.63;;;12.40;99.90;;;;;;4849045;29;20053;-81
2021/11/15 18:31:50;;;;;;;26.73;16.83;;;12.40;99.90;;;;;;4858167;29;20049;-81
2021/11/15 18:34:19;;;;;;;22.58;15.15;;;12.40;99.90;;;;;;4858342;29;20131;-83
2021/11/15 18:36:47;;;;;;;25.25;16.67;;;12.40;99.90;;;;;;4863745;29;20437;-83
2021/11/15 18:39:14;;;;;;;25.48;17.05;;;12.40;99.90;;;;;;4854780;29;20140;-82
2021/11/15 18:41:41;;;;;;;27.48;17.02;;;12.40;99.90;;;;;;4860624;29;20455;-82
2021/11/15 18:44:11;;;;;;;29.58;17.95;;;12.40;99.90;;;;;;4860393;29;20566;-82
2021/11/15 18:46:38;;;;;;;26.08;17.02;;;12.40;99.90;;;;;;4865776;29;20049;-83
2021/11/15 18:49:10;;;;;;;27.63;17.38;;;12.40;99.90;;;;;;4864333;29;20054;-81
2021/11/15 18:51:40;;;;;;;27.25;17.92;;;12.30;99.90;;;;;;4865241;29;20049;-82
2021/11/15 18:54:09;;;;;;;30.17;19.70;;;12.30;99.90;;;;;;4864413;29;20050;-81
2021/11/15 18:56:36;;;;;;;26.95;18.27;;;12.40;99.90;;;;;;4867516;29;20049;-83
2021/11/15 18:59:03;;;;;;;26.40;18.48;;;12.30;99.90;;;;;;4858971;29;20188;-82
2021/11/15 19:01:30;;;;;;;26.95;18.80;;;12.30;99.90;;;;;;4865850;29;20056;-83
2021/11/15 19:03:59;;;;;;;28.50;18.98;;;12.30;99.90;;;;;;4863034;29;20049;-84
2021/11/15 19:06:27;;;;;;;31.67;19.23;;;12.30;99.90;;;;;;4862923;29;20050;-83
2021/11/15 19:09:11;;;;;;;27.90;18.88;;;12.30;99.90;;;;;;4862045;29;20080;-82
2021/11/15 19:11:53;;;;;;;32.10;19.17;;;12.20;99.90;;;;;;4869664;29;20071;-83
2021/11/15 19:14:21;;;;;;;28.25;19.25;;;12.20;99.90;;;;;;4862565;29;20573;-83
2021/11/15 19:16:48;;;;;;;31.65;20.08;;;12.20;99.90;;;;;;4866104;29;20061;-83
2021/11/15 19:19:17;;;;;;;31.88;19.25;;;12.20;99.90;;;;;;4868706;29;20858;-82
2021/11/15 19:21:45;;;;;;;29.73;20.70;;;12.20;99.90;;;;;;4863507;29;20596;-82
2021/11/15 19:24:33;;;;;;;29.65;19.00;;;12.10;99.90;;;;;;4866736;29;20052;-82
2021/11/15 19:27:02;;;;;;;;;;;12.10;99.90;;;;;;4868608;29;20071;-83
2021/11/15 19:29:30;;;;;;;;;;;12.10;99.90;;;;;;4866471;29;19932;-84
2021/11/15 19:31:59;;;;;;;32.50;19.55;;;12.10;99.90;;;;;;4865599;29;19956;-83
2021/11/15 19:34:30;;;;;;;31.73;19.45;;;12.10;99.90;;;;;;4865386;29;20459;-83
2021/11/15 19:37:00;;;;;;;47.63;23.48;;;12.00;99.90;;;;;;4863616;29;20104;-82
2021/11/15 19:39:30;;;;;;;30.75;19.25;;;12.10;99.90;;;;;;4866376;29;20053;-84
2021/11/15 19:41:58;;;;;;;27.95;18.80;;;12.00;99.90;;;;;;4862951;29;20105;-82
2021/11/15 19:44:29;;;;;;;33.03;19.25;;;12.00;99.90;;;;;;4857856;29;20059;-83
2021/11/15 19:46:56;;;;;;;26.33;18.08;;;12.00;99.90;;;;;;4871472;29;20497;-83
2021/11/15 19:49:23;;;;;;;25.95;18.95;;;12.00;99.90;;;;;;4858728;29;20053;-81
2021/11/15 19:51:58;;;;;;;28.50;19.52;;;12.00;99.90;;;;;;4864915;29;20050;-82
2021/11/15 19:54:26;;;;;;;33.25;19.38;;;12.00;99.90;;;;;;4865084;29;20063;-82
2021/11/15 19:56:53;;;;;;;33.28;19.55;;;12.00;99.90;;;;;;4868011;29;20059;-81
2021/11/15 19:59:20;;;;;;;30.88;19.50;;;12.00;99.90;;;;;;4868186;29;20049;-81
2021/11/15 20:02:04;;;;;;;30.63;19.83;;;12.00;99.90;;;;;;4859290;29;20518;-82
2021/11/15 20:04:35;;;;;;;49.17;23.25;;;11.90;99.90;;;;;;4861269;29;20054;-82
2021/11/15 20:07:11;;;;;;;35.67;19.50;;;11.90;99.90;;;;;;4873183;29;20057;-82